createdAt,value
2023-02-19T00:01:45.726Z,58.48
2023-02-19T00:04:22.158Z,58.79
2023-02-19T00:06:55.349Z,58.55
2023-02-19T00:09:22.696Z,58.77
2023-02-19T00:11:50.299Z,58.64
2023-02-19T00:14:21.062Z,58.41
2023-02-19T00:16:48.930Z,58.36
2023-02-19T00:19:20.274Z,58.35
2023-02-19T00:21:49.460Z,58.56
2023-02-19T00:24:17.331Z,58.89
2023-02-19T00:26:45.956Z,58.58
2023-02-19T00:29:15.984Z,58.58
2023-02-19T00:31:43.776Z,58.73
2023-02-19T00:34:12.649Z,58.20
2023-02-19T00:36:41.386Z,58.42
2023-02-19T00:39:09.143Z,58.32
2023-02-19T00:41:36.213Z,58.07
2023-02-19T00:44:07.118Z,57.88
2023-02-19T00:46:37.011Z,57.87
2023-02-19T00:49:06.923Z,58.50
2023-02-19T00:51:36.651Z,58.75
2023-02-19T00:54:05.312Z,58.49
2023-02-19T00:56:32.685Z,58.84
2023-02-19T00:58:59.875Z,58.46
2023-02-19T01:01:27.102Z,58.96
2023-02-19T01:03:54.447Z,59.29
2023-02-19T01:06:22.357Z,58.98
2023-02-19T01:08:50.483Z,59.00
2023-02-19T01:11:18.197Z,58.78
2023-02-19T01:13:45.306Z,58.88
2023-02-19T01:16:16.173Z,58.77
2023-02-19T01:18:44.566Z,58.17
2023-02-19T01:21:23.266Z,58.25
2023-02-19T01:23:51.548Z,57.86
2023-02-19T01:26:21.780Z,57.91
2023-02-19T01:28:49.566Z,57.82
2023-02-19T01:31:20.580Z,57.64
2023-02-19T01:33:53.551Z,57.43
2023-02-19T01:36:21.531Z,57.61
2023-02-19T01:38:49.843Z,57.39
2023-02-19T01:41:21.338Z,57.23
2023-02-19T01:44:12.848Z,57.17
2023-02-19T01:46:44.710Z,57.75
2023-02-19T01:49:28.082Z,57.36
2023-02-19T01:52:06.603Z,57.41
2023-02-19T01:54:38.157Z,57.30
2023-02-19T01:57:12.010Z,57.12
2023-02-19T01:59:40.830Z,57.44
2023-02-19T02:02:09.903Z,57.34
2023-02-19T02:04:37.028Z,57.71
2023-02-19T02:07:26.488Z,57.64
2023-02-19T02:10:12.990Z,57.08
2023-02-19T02:12:40.103Z,57.21
2023-02-19T02:15:07.991Z,57.56
2023-02-19T02:17:56.268Z,57.54
2023-02-19T02:20:35.106Z,57.28
2023-02-19T02:23:17.057Z,57.74
2023-02-19T02:25:50.168Z,57.63
2023-02-19T02:28:45.889Z,57.58
2023-02-19T02:31:18.325Z,57.08
2023-02-19T02:34:06.777Z,57.33
2023-02-19T02:36:39.370Z,57.39
2023-02-19T02:39:11.670Z,57.43
2023-02-19T02:42:19.386Z,57.41
2023-02-19T02:45:16.717Z,57.09
2023-02-19T02:47:52.821Z,57.63
2023-02-19T02:50:29.467Z,57.28
2023-02-19T02:53:19.254Z,57.58
2023-02-19T02:55:50.404Z,57.19
2023-02-19T02:58:19.926Z,57.35
2023-02-19T03:01:17.434Z,57.36
2023-02-19T03:03:48.233Z,57.43
2023-02-19T03:06:18.799Z,57.73
2023-02-19T03:09:07.009Z,58.37
2023-02-19T03:11:56.635Z,58.16
2023-02-19T03:14:52.822Z,59.02
2023-02-19T03:17:52.125Z,58.87
2023-02-19T03:20:23.829Z,59.55
2023-02-19T03:22:53.298Z,59.31
2023-02-19T03:25:44.017Z,59.73
2023-02-19T03:28:17.833Z,59.43
2023-02-19T03:30:53.186Z,59.47
2023-02-19T03:33:25.055Z,60.21
2023-02-19T03:36:02.547Z,59.89
2023-02-19T03:38:52.987Z,59.50
2023-02-19T03:41:35.692Z,59.59
2023-02-19T03:44:20.637Z,59.38
2023-02-19T03:47:05.637Z,59.17
2023-02-19T03:49:42.171Z,59.77
2023-02-19T03:52:40.457Z,59.28
2023-02-19T03:55:23.619Z,58.63
2023-02-19T03:58:06.230Z,59.20
2023-02-19T04:00:49.794Z,60.08
2023-02-19T04:03:29.063Z,60.71
2023-02-19T04:06:02.592Z,60.58
2023-02-19T04:08:34.062Z,60.65
2023-02-19T04:11:05.851Z,60.65
2023-02-19T04:13:54.824Z,61.31
2023-02-19T04:16:26.811Z,60.82
2023-02-19T04:18:57.599Z,60.76
2023-02-19T04:21:25.989Z,61.14
2023-02-19T04:23:53.124Z,61.10
2023-02-19T04:26:23.134Z,60.19
2023-02-19T04:28:50.642Z,60.55
2023-02-19T04:31:17.948Z,60.76
2023-02-19T04:33:45.137Z,60.50
2023-02-19T04:36:12.508Z,60.32
2023-02-19T04:38:39.575Z,60.44
2023-02-19T04:41:06.740Z,59.67
2023-02-19T04:43:34.255Z,59.21
2023-02-19T04:46:02.834Z,59.37
2023-02-19T04:48:30.233Z,59.64
2023-02-19T04:50:57.343Z,59.14
2023-02-19T04:53:24.448Z,58.74
2023-02-19T04:55:53.446Z,58.60
2023-02-19T04:58:21.482Z,58.19
2023-02-19T05:01:00.254Z,57.86
2023-02-19T05:03:29.490Z,58.53
2023-02-19T05:05:56.681Z,58.61
2023-02-19T05:08:24.184Z,57.72
2023-02-19T05:10:51.436Z,58.35
2023-02-19T05:13:18.862Z,58.23
2023-02-19T05:16:05.809Z,58.59
2023-02-19T05:18:34.901Z,59.34
2023-02-19T05:21:02.471Z,58.94
2023-02-19T05:23:29.838Z,59.30
2023-02-19T05:26:05.343Z,59.57
2023-02-19T05:28:35.318Z,59.20
2023-02-19T05:31:13.848Z,59.56
2023-02-19T05:33:43.471Z,59.61
2023-02-19T05:36:13.269Z,59.52
2023-02-19T05:38:41.753Z,59.56
2023-02-19T05:41:13.379Z,59.15
2023-02-19T05:43:42.278Z,59.43
2023-02-19T05:46:11.219Z,59.03
2023-02-19T05:48:38.761Z,58.59
2023-02-19T05:51:10.141Z,58.83
2023-02-19T05:53:38.754Z,58.55
2023-02-19T05:56:21.189Z,59.54
2023-02-19T05:58:48.414Z,58.75
2023-02-19T06:01:17.516Z,59.00
2023-02-19T06:03:44.675Z,59.27
2023-02-19T06:06:14.943Z,60.00
2023-02-19T06:08:42.297Z,59.96
2023-02-19T06:11:11.178Z,60.41
2023-02-19T06:13:38.453Z,61.09
2023-02-19T06:16:07.203Z,61.22
2023-02-19T06:18:35.124Z,61.32
2023-02-19T06:21:06.237Z,60.87
2023-02-19T06:23:33.732Z,60.71
2023-02-19T06:26:11.806Z,60.35
2023-02-19T06:28:41.073Z,59.91
2023-02-19T06:31:09.655Z,59.93
2023-02-19T06:33:40.583Z,59.47
2023-02-19T06:36:12.601Z,58.53
2023-02-19T06:38:40.052Z,59.09
2023-02-19T06:41:08.945Z,58.52
2023-02-19T06:43:37.904Z,58.40
2023-02-19T06:46:07.163Z,59.31
2023-02-19T06:48:35.185Z,59.40
2023-02-19T06:51:02.890Z,59.58
2023-02-19T06:53:30.333Z,60.34
2023-02-19T06:56:03.342Z,60.62
2023-02-19T06:58:31.263Z,60.71
2023-02-19T07:00:58.570Z,61.44
2023-02-19T07:03:26.635Z,61.65
2023-02-19T07:05:54.016Z,61.61
2023-02-19T07:08:21.375Z,61.69
2023-02-19T07:10:58.772Z,62.32
2023-02-19T07:13:27.126Z,62.30
2023-02-19T07:16:02.383Z,62.90
2023-02-19T07:18:31.201Z,62.52
2023-02-19T07:21:05.078Z,62.44
2023-02-19T07:23:32.383Z,62.85
2023-02-19T07:25:59.927Z,62.31
2023-02-19T07:28:27.628Z,61.75
2023-02-19T07:31:01.232Z,62.59
2023-02-19T07:33:28.671Z,62.08
2023-02-19T07:35:56.232Z,62.09
2023-02-19T07:38:24.972Z,61.69
2023-02-19T07:40:56.581Z,61.53
2023-02-19T07:43:29.591Z,60.77
2023-02-19T07:45:57.038Z,60.57
2023-02-19T07:48:24.439Z,60.10
2023-02-19T07:50:55.767Z,59.76
2023-02-19T07:53:24.039Z,59.27
2023-02-19T07:55:51.244Z,58.50
2023-02-19T07:58:18.917Z,58.80
2023-02-19T08:00:46.348Z,58.64
2023-02-19T08:03:13.540Z,58.79
2023-02-19T08:05:42.469Z,58.73
2023-02-19T08:08:12.373Z,58.69
2023-02-19T08:10:58.666Z,58.49
2023-02-19T08:13:30.976Z,57.02
2023-02-19T08:16:16.973Z,57.25
2023-02-19T08:18:48.420Z,57.54
2023-02-19T08:21:18.407Z,57.84
2023-02-19T08:23:46.570Z,57.40
2023-02-19T08:26:13.966Z,57.69
2023-02-19T08:28:41.840Z,57.33
2023-02-19T08:31:11.749Z,56.82
2023-02-19T08:33:39.268Z,55.89
2023-02-19T08:36:08.828Z,56.92
2023-02-19T08:38:36.989Z,57.04
2023-02-19T08:41:08.551Z,56.96
2023-02-19T08:43:36.462Z,56.76
2023-02-19T08:46:04.503Z,56.27
2023-02-19T08:48:31.945Z,57.00
2023-02-19T08:51:04.551Z,57.27
2023-02-19T08:53:32.944Z,57.64
2023-02-19T08:56:05.499Z,57.48
2023-02-19T08:58:33.254Z,57.55
2023-02-19T09:01:00.616Z,57.46
2023-02-19T09:03:27.758Z,57.67
2023-02-19T09:05:55.027Z,56.79
2023-02-19T09:08:22.219Z,56.36
2023-02-19T09:11:07.597Z,55.87
2023-02-19T09:13:34.773Z,56.48
2023-02-19T09:16:04.486Z,56.12
2023-02-19T09:18:32.056Z,56.28
2023-02-19T09:21:06.150Z,55.65
2023-02-19T09:23:34.651Z,56.27
2023-02-19T09:26:04.137Z,55.41
2023-02-19T09:28:31.591Z,56.27
2023-02-19T09:31:08.292Z,55.63
2023-02-19T09:33:35.585Z,55.14
2023-02-19T09:36:03.950Z,54.57
2023-02-19T09:38:31.125Z,53.73
2023-02-19T09:41:05.797Z,53.57
2023-02-19T09:43:33.772Z,53.70
2023-02-19T09:46:17.630Z,54.18
2023-02-19T09:48:44.704Z,54.04
2023-02-19T09:51:14.192Z,53.69
2023-02-19T09:53:44.539Z,54.62
2023-02-19T09:56:11.933Z,53.80
2023-02-19T09:58:59.580Z,53.79
2023-02-19T10:01:32.762Z,53.61
2023-02-19T10:04:00.353Z,54.35
2023-02-19T10:06:30.005Z,54.38
2023-02-19T10:09:13.816Z,53.84
2023-02-19T10:11:42.408Z,54.24
2023-02-19T10:14:19.189Z,54.62
2023-02-19T10:16:49.364Z,55.56
2023-02-19T10:19:17.259Z,54.83
2023-02-19T10:21:45.322Z,55.12
2023-02-19T10:24:27.474Z,55.09
2023-02-19T10:26:55.298Z,55.37
2023-02-19T10:29:24.751Z,55.13
2023-02-19T10:32:21.180Z,55.33
2023-02-19T10:34:54.052Z,55.12
2023-02-19T10:37:21.268Z,54.27
2023-02-19T10:39:50.802Z,54.44
2023-02-19T10:42:23.300Z,53.99
2023-02-19T10:44:55.735Z,53.54
2023-02-19T10:47:25.960Z,53.39
2023-02-19T10:49:58.065Z,53.77
2023-02-19T10:52:36.756Z,53.57
2023-02-19T10:55:25.253Z,53.73
2023-02-19T10:57:52.317Z,53.90
2023-02-19T11:00:23.214Z,54.29
2023-02-19T11:02:51.039Z,53.98
2023-02-19T11:05:21.509Z,53.57
2023-02-19T11:07:50.220Z,53.85
2023-02-19T11:10:40.758Z,53.11
2023-02-19T11:13:16.584Z,52.95
2023-02-19T11:15:50.574Z,54.21
2023-02-19T11:18:26.794Z,54.18
2023-02-19T11:20:57.828Z,53.80
2023-02-19T11:23:46.538Z,54.07
2023-02-19T11:26:27.601Z,53.79
2023-02-19T11:29:00.777Z,53.71
2023-02-19T11:31:34.420Z,54.04
2023-02-19T11:34:29.528Z,54.20
2023-02-19T11:37:15.158Z,54.58
2023-02-19T11:39:45.490Z,54.84
2023-02-19T11:42:23.905Z,55.42
2023-02-19T11:45:07.197Z,55.63
2023-02-19T11:47:57.369Z,55.53
2023-02-19T11:50:30.636Z,55.67
2023-02-19T11:53:16.816Z,56.34
2023-02-19T11:56:07.297Z,56.43
2023-02-19T11:59:05.383Z,56.67
2023-02-19T12:01:54.494Z,57.12
2023-02-19T12:04:43.188Z,56.75
2023-02-19T12:07:23.210Z,56.79
2023-02-19T12:10:21.274Z,56.94
2023-02-19T12:12:52.753Z,56.80
2023-02-19T12:15:31.642Z,57.21
2023-02-19T12:18:16.859Z,57.14
2023-02-19T12:21:02.793Z,56.81
2023-02-19T12:24:15.913Z,57.21
2023-02-19T12:27:00.976Z,56.76
2023-02-19T12:29:57.458Z,57.29
2023-02-19T12:32:47.924Z,57.40
2023-02-19T12:35:48.277Z,57.63
2023-02-19T12:38:23.777Z,58.00
2023-02-19T12:40:59.364Z,58.59
2023-02-19T12:43:26.986Z,58.49
2023-02-19T12:46:01.139Z,58.58
2023-02-19T12:48:44.612Z,58.59
2023-02-19T12:51:25.873Z,58.37
2023-02-19T12:54:19.267Z,57.98
2023-02-19T12:56:57.571Z,57.86
2023-02-19T12:59:26.738Z,58.14
2023-02-19T13:02:05.956Z,58.49
2023-02-19T13:04:45.617Z,59.21
2023-02-19T13:07:26.295Z,59.46
2023-02-19T13:10:03.345Z,59.45
2023-02-19T13:12:36.974Z,59.25
2023-02-19T13:15:14.988Z,59.43
2023-02-19T13:17:47.809Z,59.61
2023-02-19T13:20:29.912Z,59.93
2023-02-19T13:23:32.031Z,60.49
2023-02-19T13:26:16.426Z,60.53
2023-02-19T13:29:05.197Z,60.86
2023-02-19T13:31:38.644Z,60.82
2023-02-19T13:34:31.877Z,60.21
2023-02-19T13:36:59.821Z,60.15
2023-02-19T13:39:28.493Z,59.89
2023-02-19T13:42:02.071Z,60.10
2023-02-19T13:44:31.915Z,59.83
2023-02-19T13:46:59.921Z,59.85
2023-02-19T13:49:31.690Z,59.04
2023-02-19T13:52:23.404Z,58.71
2023-02-19T13:54:51.450Z,58.56
2023-02-19T13:57:18.558Z,58.40
2023-02-19T13:59:46.634Z,58.31
2023-02-19T14:02:23.219Z,58.88
2023-02-19T14:05:44.409Z,58.70
2023-02-19T14:08:11.586Z,58.00
2023-02-19T14:11:02.681Z,58.11
2023-02-19T14:13:51.061Z,57.94
2023-02-19T14:16:38.128Z,57.52
2023-02-19T14:19:14.926Z,57.53
2023-02-19T14:21:44.066Z,56.80
2023-02-19T14:24:13.675Z,56.11
2023-02-19T14:26:41.847Z,56.53
2023-02-19T14:29:12.942Z,56.52
2023-02-19T14:31:40.830Z,56.06
2023-02-19T14:34:25.123Z,56.00
2023-02-19T14:36:55.627Z,56.57
2023-02-19T14:39:29.082Z,56.50
2023-02-19T14:42:02.138Z,56.28
2023-02-19T14:44:34.721Z,56.44
2023-02-19T14:47:07.506Z,56.60
2023-02-19T14:49:43.827Z,56.80
2023-02-19T14:52:25.140Z,57.21
2023-02-19T14:55:01.655Z,57.54
2023-02-19T14:57:35.962Z,57.82
2023-02-19T15:00:21.862Z,57.53
2023-02-19T15:02:51.179Z,57.59
2023-02-19T15:05:26.038Z,58.16
2023-02-19T15:07:55.224Z,57.92
2023-02-19T15:10:22.854Z,57.52
2023-02-19T15:12:54.112Z,58.18
2023-02-19T15:15:30.453Z,58.46
2023-02-19T15:18:01.455Z,59.19
2023-02-19T15:20:32.782Z,59.76
2023-02-19T15:23:01.970Z,59.67
2023-02-19T15:25:38.155Z,60.69
2023-02-19T15:28:33.430Z,60.97
2023-02-19T15:31:00.602Z,60.27
2023-02-19T15:33:28.430Z,60.41
2023-02-19T15:35:59.218Z,60.51
2023-02-19T15:38:26.944Z,60.37
2023-02-19T15:40:57.380Z,59.96
2023-02-19T15:43:49.901Z,60.55
2023-02-19T15:46:22.619Z,60.96
2023-02-19T15:49:15.610Z,61.83
2023-02-19T15:51:52.632Z,62.54
2023-02-19T15:54:28.912Z,63.16
2023-02-19T15:57:03.432Z,63.17
2023-02-19T15:59:34.070Z,63.85
2023-02-19T16:02:03.641Z,63.99
2023-02-19T16:04:31.154Z,64.21
2023-02-19T16:07:03.766Z,64.34
2023-02-19T16:09:37.427Z,64.97
2023-02-19T16:12:20.686Z,65.26
2023-02-19T16:14:49.388Z,64.61
2023-02-19T16:17:20.794Z,64.31
2023-02-19T16:19:58.081Z,65.40
2023-02-19T16:22:29.066Z,64.43
2023-02-19T16:25:02.403Z,65.28
2023-02-19T16:27:38.225Z,65.00
2023-02-19T16:30:17.590Z,65.29
2023-02-19T16:32:47.044Z,64.99
2023-02-19T16:35:42.416Z,65.78
2023-02-19T16:38:14.785Z,65.40
2023-02-19T16:40:51.203Z,65.29
2023-02-19T16:43:26.510Z,64.84
2023-02-19T16:45:53.982Z,64.99
2023-02-19T16:48:27.857Z,66.23
2023-02-19T16:50:55.992Z,65.75
2023-02-19T16:53:25.466Z,66.11
2023-02-19T16:55:52.956Z,66.01
2023-02-19T16:58:21.580Z,66.75
2023-02-19T17:00:48.667Z,66.64
2023-02-19T17:03:19.580Z,66.84
2023-02-19T17:05:47.934Z,66.86
2023-02-19T17:08:37.296Z,67.93
2023-02-19T17:11:10.412Z,67.43
2023-02-19T17:13:38.286Z,67.28
2023-02-19T17:16:05.724Z,67.37
2023-02-19T17:18:33.344Z,67.73
2023-02-19T17:21:13.821Z,68.90
2023-02-19T17:23:41.201Z,68.18
2023-02-19T17:26:16.394Z,68.79
2023-02-19T17:28:43.539Z,68.28
2023-02-19T17:31:11.685Z,68.08
2023-02-19T17:33:39.655Z,68.27
2023-02-19T17:36:22.012Z,68.49
2023-02-19T17:38:49.248Z,67.17
2023-02-19T17:41:19.396Z,67.01
2023-02-19T17:43:50.687Z,67.78
2023-02-19T17:46:19.257Z,67.76
2023-02-19T17:48:46.515Z,67.94
2023-02-19T17:51:14.299Z,67.66
2023-02-19T17:53:42.665Z,67.85
2023-02-19T17:56:12.117Z,67.75
2023-02-19T17:58:39.310Z,67.63
2023-02-19T18:01:06.350Z,67.90
2023-02-19T18:03:33.417Z,67.84
2023-02-19T18:06:01.168Z,68.09
2023-02-19T18:08:30.898Z,67.75
2023-02-19T18:10:58.202Z,68.57
2023-02-19T18:13:25.548Z,68.30
2023-02-19T18:15:53.754Z,68.57
2023-02-19T18:18:21.206Z,68.68
2023-02-19T18:20:48.284Z,68.95
2023-02-19T18:23:15.869Z,69.29
2023-02-19T18:25:42.970Z,68.90
2023-02-19T18:28:13.142Z,69.23
2023-02-19T18:30:40.306Z,69.14
2023-02-19T18:33:07.800Z,68.77
2023-02-19T18:35:35.138Z,68.73
2023-02-19T18:38:02.491Z,67.85
2023-02-19T18:40:30.822Z,68.23
2023-02-19T18:42:59.672Z,68.11
2023-02-19T18:45:27.926Z,68.08
2023-02-19T18:47:55.298Z,67.56
2023-02-19T18:50:22.750Z,67.58
2023-02-19T18:52:50.232Z,67.88
2023-02-19T18:55:17.591Z,68.36
2023-02-19T18:57:57.408Z,69.44
2023-02-19T19:00:27.346Z,69.65
2023-02-19T19:03:01.762Z,70.00
2023-02-19T19:05:29.102Z,70.27
2023-02-19T19:07:59.433Z,70.84
2023-02-19T19:10:31.057Z,70.74
2023-02-19T19:12:59.373Z,70.53
2023-02-19T19:15:26.834Z,71.04
2023-02-19T19:17:55.125Z,71.00
2023-02-19T19:20:24.006Z,71.30
2023-02-19T19:22:52.743Z,70.91
2023-02-19T19:25:21.585Z,71.77
2023-02-19T19:27:53.264Z,71.73
2023-02-19T19:30:20.749Z,71.87
2023-02-19T19:32:50.383Z,72.64
2023-02-19T19:35:20.285Z,72.26
2023-02-19T19:37:47.704Z,72.73
2023-02-19T19:40:17.583Z,71.92
2023-02-19T19:42:44.848Z,71.67
2023-02-19T19:45:13.909Z,71.55
2023-02-19T19:47:41.119Z,71.99
2023-02-19T19:50:13.513Z,72.66
2023-02-19T19:52:49.381Z,72.09
2023-02-19T19:55:17.902Z,71.64
2023-02-19T19:57:45.730Z,71.05
2023-02-19T20:00:16.235Z,71.33
2023-02-19T20:02:44.642Z,71.74
2023-02-19T20:05:18.906Z,71.36
2023-02-19T20:07:47.368Z,71.95
2023-02-19T20:10:17.011Z,71.35
2023-02-19T20:12:44.141Z,71.58
2023-02-19T20:15:12.509Z,71.42
2023-02-19T20:17:41.537Z,71.99
2023-02-19T20:20:09.406Z,71.71
2023-02-19T20:22:37.866Z,70.62
2023-02-19T20:25:05.240Z,70.51
2023-02-19T20:27:32.498Z,70.71
2023-02-19T20:29:59.778Z,69.87
2023-02-19T20:32:26.845Z,69.69
2023-02-19T20:34:53.957Z,69.87
2023-02-19T20:37:21.156Z,70.33
2023-02-19T20:39:50.399Z,70.53
2023-02-19T20:42:18.330Z,70.02
2023-02-19T20:44:45.714Z,70.06
2023-02-19T20:47:12.839Z,70.12
2023-02-19T20:49:45.260Z,70.91
2023-02-19T20:52:15.540Z,70.47
2023-02-19T20:54:45.841Z,70.53
2023-02-19T20:57:15.600Z,70.68
2023-02-19T20:59:44.453Z,70.99
2023-02-19T21:02:18.593Z,71.37
2023-02-19T21:04:45.865Z,70.82
2023-02-19T21:07:13.077Z,71.30
2023-02-19T21:09:40.302Z,71.33
2023-02-19T21:12:07.866Z,70.84
2023-02-19T21:14:34.984Z,70.78
2023-02-19T21:17:02.249Z,70.30
2023-02-19T21:19:29.780Z,70.69
2023-02-19T21:21:56.950Z,70.44
2023-02-19T21:24:24.437Z,70.16
2023-02-19T21:26:51.982Z,69.78
2023-02-19T21:29:22.458Z,69.13
2023-02-19T21:31:52.440Z,69.08
2023-02-19T21:34:22.473Z,69.13
2023-02-19T21:36:49.557Z,68.01
2023-02-19T21:39:19.352Z,67.67
2023-02-19T21:41:46.545Z,67.34
2023-02-19T21:44:14.036Z,66.80
2023-02-19T21:46:42.376Z,65.81
2023-02-19T21:49:10.286Z,65.13
2023-02-19T21:51:41.486Z,64.30
2023-02-19T21:54:14.653Z,64.51
2023-02-19T21:56:42.055Z,64.62
2023-02-19T21:59:09.550Z,64.69
2023-02-19T22:01:38.936Z,65.27
2023-02-19T22:04:07.741Z,64.75
2023-02-19T22:06:37.004Z,64.17
2023-02-19T22:09:04.442Z,63.89
2023-02-19T22:11:32.123Z,63.79
2023-02-19T22:13:59.446Z,63.73
2023-02-19T22:16:27.070Z,63.98
2023-02-19T22:18:57.233Z,64.14
2023-02-19T22:21:27.697Z,64.48
2023-02-19T22:23:55.380Z,64.69
2023-02-19T22:26:36.410Z,64.05
2023-02-19T22:29:07.517Z,63.78
2023-02-19T22:31:35.779Z,63.92
2023-02-19T22:34:03.977Z,64.16
2023-02-19T22:36:33.765Z,64.71
2023-02-19T22:39:01.692Z,64.33
2023-02-19T22:41:29.268Z,64.56
2023-02-19T22:43:57.632Z,64.17
2023-02-19T22:46:27.280Z,64.03
2023-02-19T22:48:54.422Z,64.54
2023-02-19T22:51:24.367Z,64.94
2023-02-19T22:53:56.719Z,65.81
2023-02-19T22:56:26.063Z,65.53
2023-02-19T22:58:55.247Z,66.04
2023-02-19T23:01:23.451Z,65.50
2023-02-19T23:03:53.086Z,64.84
2023-02-19T23:06:38.698Z,64.84
2023-02-19T23:09:11.135Z,63.32
2023-02-19T23:11:39.507Z,63.73
2023-02-19T23:14:07.974Z,63.13
2023-02-19T23:16:38.475Z,63.43
2023-02-19T23:19:07.181Z,62.68
2023-02-19T23:21:34.548Z,62.76
2023-02-19T23:24:01.886Z,63.33
2023-02-19T23:26:29.186Z,62.64
2023-02-19T23:28:57.134Z,62.17
2023-02-19T23:31:24.661Z,61.99
2023-02-19T23:33:51.910Z,61.63
2023-02-19T23:36:21.927Z,61.45
2023-02-19T23:38:49.175Z,60.95
2023-02-19T23:41:17.880Z,60.62
2023-02-19T23:43:45.719Z,60.55
2023-02-19T23:46:17.953Z,60.24
2023-02-19T23:48:46.406Z,60.45
2023-02-19T23:51:14.175Z,60.75
2023-02-19T23:53:42.626Z,60.71
2023-02-19T23:56:09.916Z,60.80
2023-02-19T23:58:37.812Z,60.28
